createdAt,value
2023-09-06T00:00:28.844Z,101296.13
2023-09-06T00:05:31.079Z,101296.47
2023-09-06T00:10:32.568Z,101293.81
2023-09-06T00:15:34.220Z,101290.19
2023-09-06T00:20:36.397Z,101294.44
2023-09-06T00:25:38.111Z,101297.75
2023-09-06T00:30:39.657Z,101302.16
2023-09-06T00:35:41.182Z,101300.22
2023-09-06T00:40:42.757Z,101303.22
2023-09-06T00:45:46.273Z,101302.47
2023-09-06T00:50:51.916Z,101303.53
2023-09-06T00:55:53.550Z,101299.88
2023-09-06T01:00:54.993Z,101292.63
2023-09-06T01:05:59.140Z,101291.66
2023-09-06T01:11:21.916Z,101290.59
2023-09-06T01:16:31.381Z,101298.16
2023-09-06T01:21:48.967Z,101295.88
2023-09-06T01:26:50.576Z,101288.66
2023-09-06T01:31:52.100Z,101297.63
2023-09-06T01:36:53.843Z,101304.19
2023-09-06T01:41:55.296Z,101295.28
2023-09-06T01:46:56.719Z,101301.75
2023-09-06T01:51:59.161Z,101300.38
2023-09-06T01:57:00.626Z,101302.41
2023-09-06T02:02:02.059Z,101310.13
2023-09-06T02:07:03.944Z,101312.94
2023-09-06T02:12:06.630Z,101306.06
2023-09-06T02:17:08.108Z,101305.28
2023-09-06T02:22:09.612Z,101307.69
2023-09-06T02:27:13.808Z,101309.09
2023-09-06T02:32:15.286Z,101313.97
2023-09-06T02:37:16.704Z,101320.63
2023-09-06T02:42:18.092Z,101326.91
2023-09-06T02:47:26.503Z,101330.91
2023-09-06T02:52:30.116Z,101323.66
2023-09-06T02:57:32.199Z,101333.34
2023-09-06T03:02:35.087Z,101339.78
2023-09-06T03:07:36.547Z,101339.59
2023-09-06T03:12:42.766Z,101344.00
2023-09-06T03:17:48.347Z,101343.00
2023-09-06T03:22:52.909Z,101344.16
2023-09-06T03:28:01.333Z,101349.59
2023-09-06T03:33:05.490Z,101354.63
2023-09-06T03:38:10.061Z,101361.66
2023-09-06T03:43:18.210Z,101357.59
2023-09-06T03:48:21.946Z,101362.22
2023-09-06T03:53:27.308Z,101368.09
2023-09-06T03:58:29.285Z,101368.84
2023-09-06T04:03:32.175Z,101374.28
2023-09-06T04:08:35.343Z,101376.91
2023-09-06T04:13:36.918Z,101367.19
2023-09-06T04:18:38.296Z,101378.44
2023-09-06T04:23:40.745Z,101373.78
2023-09-06T04:28:42.266Z,101377.84
2023-09-06T04:33:43.646Z,101385.34
2023-09-06T04:38:45.121Z,101394.97
2023-09-06T04:43:46.539Z,101393.53
2023-09-06T04:48:47.975Z,101400.59
2023-09-06T04:53:50.188Z,101404.59
2023-09-06T04:58:51.606Z,101404.16
2023-09-06T05:03:53.080Z,101408.44
2023-09-06T05:08:54.900Z,101413.84
2023-09-06T05:13:56.363Z,101416.72
2023-09-06T05:18:57.921Z,101418.13
2023-09-06T05:23:59.381Z,101417.97
2023-09-06T05:29:00.775Z,101420.81
2023-09-06T05:34:02.231Z,101430.16
2023-09-06T05:39:07.327Z,101427.41
2023-09-06T05:44:08.942Z,101434.50
2023-09-06T05:49:10.509Z,101434.78
2023-09-06T05:54:11.911Z,101428.41
2023-09-06T05:59:15.249Z,101433.16
2023-09-06T06:04:16.805Z,101434.22
2023-09-06T06:09:22.640Z,101431.88
2023-09-06T06:14:26.748Z,101433.72
2023-09-06T06:19:28.196Z,101436.19
2023-09-06T06:24:34.584Z,101438.78
2023-09-06T06:29:36.144Z,101432.56
2023-09-06T06:34:40.368Z,101438.84
2023-09-06T06:39:43.189Z,101450.00
2023-09-06T06:44:48.481Z,101447.75
2023-09-06T06:49:53.249Z,101448.31
2023-09-06T06:54:54.674Z,101449.25
2023-09-06T06:59:56.048Z,101450.09
2023-09-06T07:04:59.022Z,101439.75
2023-09-06T07:10:00.504Z,101436.84
2023-09-06T07:15:02.033Z,101440.66
2023-09-06T07:20:06.267Z,101447.41
2023-09-06T07:25:09.296Z,101447.50
2023-09-06T07:30:11.197Z,101442.22
2023-09-06T07:35:13.340Z,101443.09
2023-09-06T07:40:14.947Z,101443.63
2023-09-06T07:45:16.554Z,101436.72
2023-09-06T07:50:18.343Z,101445.38
2023-09-06T07:55:19.749Z,101440.47
2023-09-06T08:00:21.273Z,101450.88
2023-09-06T08:05:22.626Z,101442.81
2023-09-06T08:10:24.694Z,101439.69
2023-09-06T08:15:26.326Z,101425.53
2023-09-06T08:20:27.989Z,101427.97
2023-09-06T08:25:29.494Z,101425.38
2023-09-06T08:30:31.023Z,101424.06
2023-09-06T08:35:32.480Z,101420.41
2023-09-06T08:40:34.137Z,101421.75
2023-09-06T08:45:36.249Z,101424.03
2023-09-06T08:50:38.644Z,101429.63
2023-09-06T08:55:42.356Z,101427.63
2023-09-06T09:00:44.051Z,101425.31
2023-09-06T09:05:45.577Z,101428.38
2023-09-06T09:10:47.007Z,101417.03
2023-09-06T09:15:48.798Z,101419.25
2023-09-06T09:20:50.204Z,101428.00
2023-09-06T09:25:51.872Z,101427.19
2023-09-06T09:30:53.312Z,101419.47
2023-09-06T09:35:54.803Z,101425.66
2023-09-06T09:41:07.272Z,101426.25
2023-09-06T09:46:09.515Z,101414.72
2023-09-06T09:51:17.308Z,101415.59
2023-09-06T09:56:23.108Z,101411.22
2023-09-06T10:01:24.892Z,101408.91
2023-09-06T10:06:32.364Z,101406.63
2023-09-06T10:11:35.504Z,101414.66
2023-09-06T10:16:36.947Z,101407.63
2023-09-06T10:21:38.910Z,101401.13
2023-09-06T10:26:41.773Z,101394.44
2023-09-06T10:31:50.410Z,101403.63
2023-09-06T10:36:55.371Z,101389.13
2023-09-06T10:42:14.968Z,101378.06
2023-09-06T10:47:35.195Z,101379.72
2023-09-06T10:52:40.603Z,101375.25
2023-09-06T10:57:49.660Z,101368.75
2023-09-06T11:03:09.726Z,101366.56
2023-09-06T11:08:22.994Z,101360.50
2023-09-06T11:13:29.522Z,101357.53
2023-09-06T11:18:33.931Z,101356.84
2023-09-06T11:23:45.228Z,101345.88
2023-09-06T11:28:48.769Z,101336.66
2023-09-06T11:34:02.227Z,101330.31
2023-09-06T11:39:17.359Z,101331.94
2023-09-06T11:44:20.332Z,101319.03
2023-09-06T11:49:26.222Z,101320.44
2023-09-06T11:54:30.053Z,101309.81
2023-09-06T11:59:33.327Z,101309.22
2023-09-06T12:04:36.039Z,101299.34
2023-09-06T12:09:37.837Z,101309.03
2023-09-06T12:14:43.057Z,101298.88
2023-09-06T12:19:45.254Z,101300.34
2023-09-06T12:24:48.929Z,101292.25
2023-09-06T12:29:50.417Z,101282.03
2023-09-06T12:34:53.730Z,101282.19
2023-09-06T12:39:55.750Z,101276.84
2023-09-06T12:44:57.161Z,101276.69
2023-09-06T12:49:58.966Z,101280.25
2023-09-06T12:55:00.692Z,101273.66
2023-09-06T13:00:02.577Z,101267.22
2023-09-06T13:05:04.451Z,101251.50
2023-09-06T13:10:06.513Z,101250.69
2023-09-06T13:15:09.440Z,101248.63
2023-09-06T13:20:11.971Z,101245.78
2023-09-06T13:25:13.684Z,101240.84
2023-09-06T13:30:15.320Z,101242.56
2023-09-06T13:35:16.759Z,101232.56
2023-09-06T13:40:18.718Z,101226.38
2023-09-06T13:45:21.441Z,101225.59
2023-09-06T13:50:22.844Z,101220.50
2023-09-06T13:55:25.045Z,101213.81
2023-09-06T14:00:26.514Z,101211.47
2023-09-06T14:05:27.866Z,101204.78
2023-09-06T14:10:29.659Z,101211.59
2023-09-06T14:15:31.080Z,101210.81
2023-09-06T14:20:34.565Z,101201.28
2023-09-06T14:25:36.426Z,101190.53
2023-09-06T14:30:41.092Z,101191.78
2023-09-06T14:35:43.448Z,101196.47
2023-09-06T14:40:45.225Z,101186.84
2023-09-06T14:45:46.704Z,101183.09
2023-09-06T14:50:48.086Z,101180.91
2023-09-06T14:55:49.558Z,101178.69
2023-09-06T15:00:50.958Z,101176.81
2023-09-06T15:05:52.459Z,101180.75
2023-09-06T15:10:53.853Z,101178.69
2023-09-06T15:15:55.248Z,101173.97
2023-09-06T15:20:56.786Z,101178.66
2023-09-06T15:25:59.347Z,101174.78
2023-09-06T15:31:00.815Z,101168.47
2023-09-06T15:36:08.750Z,101170.25
2023-09-06T15:41:15.007Z,101172.13
2023-09-06T15:46:16.484Z,101172.56
2023-09-06T15:51:18.306Z,101168.13
2023-09-06T15:56:20.524Z,101177.72
2023-09-06T16:01:22.397Z,101173.63
2023-09-06T16:06:26.952Z,101160.53
2023-09-06T16:11:28.634Z,101160.19
2023-09-06T16:16:30.101Z,101169.44
2023-09-06T16:21:33.862Z,101158.81
2023-09-06T16:26:35.534Z,101166.41
2023-09-06T16:31:37.004Z,101160.66
2023-09-06T16:36:38.376Z,101166.69
2023-09-06T16:41:41.513Z,101165.09
2023-09-06T16:46:43.161Z,101164.41
2023-09-06T16:51:44.683Z,101165.19
2023-09-06T16:56:46.163Z,101167.00
2023-09-06T17:01:47.912Z,101167.03
2023-09-06T17:06:49.873Z,101165.28
2023-09-06T17:11:51.236Z,101168.28
2023-09-06T17:16:52.706Z,101173.59
2023-09-06T17:21:54.120Z,101174.34
2023-09-06T17:26:55.472Z,101175.41
2023-09-06T17:31:56.933Z,101169.09
2023-09-06T17:36:58.684Z,101156.19
2023-09-06T17:42:00.026Z,101169.13
2023-09-06T17:47:03.473Z,101170.03
2023-09-06T17:52:06.871Z,101162.25
2023-09-06T17:57:09.093Z,101176.28
2023-09-06T18:02:10.647Z,101177.44
2023-09-06T18:07:13.387Z,101184.19
2023-09-06T18:12:14.782Z,101182.13
2023-09-06T18:17:16.994Z,101175.41
2023-09-06T18:22:18.465Z,101188.91
2023-09-06T18:27:20.647Z,101200.50
2023-09-06T18:32:22.058Z,101200.38
2023-09-06T18:37:23.730Z,101212.69
2023-09-06T18:42:25.171Z,101216.47
2023-09-06T18:47:26.630Z,101226.88
2023-09-06T18:52:28.726Z,101228.47
2023-09-06T18:57:30.098Z,101231.06
2023-09-06T19:02:31.548Z,101237.25
2023-09-06T19:07:34.566Z,101243.13
2023-09-06T19:12:36.389Z,101258.25
2023-09-06T19:17:41.644Z,101257.97
2023-09-06T19:22:43.430Z,101263.25
2023-09-06T19:27:44.973Z,101260.38
2023-09-06T19:32:46.484Z,101255.03
2023-09-06T19:37:48.202Z,101263.44
2023-09-06T19:42:52.616Z,101260.97
2023-09-06T19:47:54.104Z,101261.34
2023-09-06T19:52:55.615Z,101258.41
2023-09-06T19:57:57.067Z,101262.44
2023-09-06T20:02:58.640Z,101263.63
2023-09-06T20:08:00.228Z,101266.63
2023-09-06T20:13:01.714Z,101266.06
2023-09-06T20:18:03.332Z,101274.13
2023-09-06T20:23:04.868Z,101272.19
2023-09-06T20:28:06.468Z,101272.41
2023-09-06T20:33:08.156Z,101271.69
2023-09-06T20:38:09.908Z,101275.94
2023-09-06T20:43:11.418Z,101288.22
2023-09-06T20:48:12.913Z,101288.88
2023-09-06T20:53:14.321Z,101295.28
2023-09-06T20:58:22.190Z,101301.66
2023-09-06T21:03:25.930Z,101299.22
2023-09-06T21:08:28.193Z,101295.84
2023-09-06T21:13:29.795Z,101301.75
2023-09-06T21:18:31.711Z,101301.28
2023-09-06T21:23:34.173Z,101308.84
2023-09-06T21:28:35.582Z,101314.44
2023-09-06T21:33:37.078Z,101315.81
2023-09-06T21:38:38.509Z,101318.78
2023-09-06T21:43:39.888Z,101320.91
2023-09-06T21:48:41.712Z,101321.34
2023-09-06T21:53:43.232Z,101323.81
2023-09-06T21:58:44.788Z,101330.22
2023-09-06T22:03:46.340Z,101335.03
2023-09-06T22:08:47.911Z,101331.38
2023-09-06T22:13:50.098Z,101333.06
2023-09-06T22:18:54.584Z,101331.69
2023-09-06T22:23:56.006Z,101328.03
2023-09-06T22:28:57.623Z,101332.13
2023-09-06T22:33:59.254Z,101329.22
2023-09-06T22:39:00.997Z,101327.56
2023-09-06T22:44:02.367Z,101329.44
2023-09-06T22:49:03.985Z,101339.44
2023-09-06T22:54:05.684Z,101334.38
2023-09-06T22:59:07.283Z,101333.59
2023-09-06T23:04:08.711Z,101337.72
2023-09-06T23:09:12.220Z,101341.56
2023-09-06T23:14:18.351Z,101342.81
2023-09-06T23:19:21.928Z,101345.06
2023-09-06T23:24:24.040Z,101346.06
2023-09-06T23:29:33.641Z,101348.13
2023-09-06T23:34:36.490Z,101356.59
2023-09-06T23:39:41.643Z,101351.34
2023-09-06T23:44:44.466Z,101349.97
2023-09-06T23:49:46.072Z,101353.97
2023-09-06T23:54:48.698Z,101353.00
2023-09-06T23:59:50.282Z,101355.81
